sensor_id;sensor_type;location;lat;lon;timestamp;P1;durP1;ratioP1;P2;durP2;ratioP2
8891;SDS011;4482;54.332;10.118;2023-01-19T00:02:20;19.70;;;13.30;;
8891;SDS011;4482;54.332;10.118;2023-01-19T00:04:47;16.40;;;10.87;;
8891;SDS011;4482;54.332;10.118;2023-01-19T00:07:15;15.53;;;11.90;;
8891;SDS011;4482;54.332;10.118;2023-01-19T00:09:42;16.70;;;11.90;;
8891;SDS011;4482;54.332;10.118;2023-01-19T00:12:09;21.37;;;12.13;;
8891;SDS011;4482;54.332;10.118;2023-01-19T00:14:36;17.60;;;12.60;;
8891;SDS011;4482;54.332;10.118;2023-01-19T00:17:03;18.27;;;12.57;;
8891;SDS011;4482;54.332;10.118;2023-01-19T00:19:29;23.30;;;13.57;;
8891;SDS011;4482;54.332;10.118;2023-01-19T00:21:56;18.67;;;12.77;;
8891;SDS011;4482;54.332;10.118;2023-01-19T00:24:24;16.93;;;12.83;;
8891;SDS011;4482;54.332;10.118;2023-01-19T00:26:51;17.70;;;13.00;;
8891;SDS011;4482;54.332;10.118;2023-01-19T00:29:18;15.30;;;11.67;;
8891;SDS011;4482;54.332;10.118;2023-01-19T00:31:45;18.07;;;12.33;;
8891;SDS011;4482;54.332;10.118;2023-01-19T00:34:12;15.57;;;12.27;;
8891;SDS011;4482;54.332;10.118;2023-01-19T00:36:39;22.03;;;13.67;;
8891;SDS011;4482;54.332;10.118;2023-01-19T00:39:06;19.97;;;13.40;;
8891;SDS011;4482;54.332;10.118;2023-01-19T00:41:34;16.73;;;12.70;;
8891;SDS011;4482;54.332;10.118;2023-01-19T00:44:18;18.07;;;12.67;;
8891;SDS011;4482;54.332;10.118;2023-01-19T00:46:45;20.43;;;14.23;;
8891;SDS011;4482;54.332;10.118;2023-01-19T00:49:12;20.23;;;13.83;;
8891;SDS011;4482;54.332;10.118;2023-01-19T00:51:39;18.27;;;12.67;;
8891;SDS011;4482;54.332;10.118;2023-01-19T00:54:06;17.10;;;12.77;;
8891;SDS011;4482;54.332;10.118;2023-01-19T00:56:35;16.83;;;12.90;;
8891;SDS011;4482;54.332;10.118;2023-01-19T00:59:02;21.07;;;13.63;;
8891;SDS011;4482;54.332;10.118;2023-01-19T01:01:29;17.80;;;12.57;;
8891;SDS011;4482;54.332;10.118;2023-01-19T01:03:56;17.47;;;12.23;;
8891;SDS011;4482;54.332;10.118;2023-01-19T01:06:23;18.63;;;12.87;;
8891;SDS011;4482;54.332;10.118;2023-01-19T01:08:50;20.43;;;13.73;;
8891;SDS011;4482;54.332;10.118;2023-01-19T01:11:17;18.43;;;13.10;;
8891;SDS011;4482;54.332;10.118;2023-01-19T01:13:45;15.93;;;11.90;;
8891;SDS011;4482;54.332;10.118;2023-01-19T01:16:13;20.07;;;13.43;;
8891;SDS011;4482;54.332;10.118;2023-01-19T01:18:40;19.03;;;13.70;;
8891;SDS011;4482;54.332;10.118;2023-01-19T01:21:07;19.50;;;12.53;;
8891;SDS011;4482;54.332;10.118;2023-01-19T01:23:34;16.37;;;12.17;;
8891;SDS011;4482;54.332;10.118;2023-01-19T01:26:01;18.63;;;12.67;;
8891;SDS011;4482;54.332;10.118;2023-01-19T01:28:28;17.57;;;12.80;;
8891;SDS011;4482;54.332;10.118;2023-01-19T01:30:57;17.50;;;11.80;;
8891;SDS011;4482;54.332;10.118;2023-01-19T01:33:24;19.27;;;13.00;;
8891;SDS011;4482;54.332;10.118;2023-01-19T01:35:51;16.37;;;11.77;;
8891;SDS011;4482;54.332;10.118;2023-01-19T01:38:18;18.20;;;12.43;;
8891;SDS011;4482;54.332;10.118;2023-01-19T01:40:45;19.00;;;11.90;;
8891;SDS011;4482;54.332;10.118;2023-01-19T01:43:12;16.77;;;11.97;;
8891;SDS011;4482;54.332;10.118;2023-01-19T01:45:41;14.27;;;11.40;;
8891;SDS011;4482;54.332;10.118;2023-01-19T01:48:11;17.77;;;11.70;;
8891;SDS011;4482;54.332;10.118;2023-01-19T01:50:43;17.37;;;11.67;;
8891;SDS011;4482;54.332;10.118;2023-01-19T01:53:27;12.70;;;10.50;;
8891;SDS011;4482;54.332;10.118;2023-01-19T01:55:55;17.07;;;11.83;;
8891;SDS011;4482;54.332;10.118;2023-01-19T01:58:22;18.83;;;12.13;;
8891;SDS011;4482;54.332;10.118;2023-01-19T02:00:49;12.57;;;11.03;;
8891;SDS011;4482;54.332;10.118;2023-01-19T02:03:35;12.30;;;10.27;;
8891;SDS011;4482;54.332;10.118;2023-01-19T02:06:02;15.80;;;11.80;;
8891;SDS011;4482;54.332;10.118;2023-01-19T02:08:32;19.43;;;11.27;;
8891;SDS011;4482;54.332;10.118;2023-01-19T02:11:21;17.87;;;11.03;;
8891;SDS011;4482;54.332;10.118;2023-01-19T02:14:05;14.00;;;11.00;;
8891;SDS011;4482;54.332;10.118;2023-01-19T02:16:33;19.10;;;11.13;;
8891;SDS011;4482;54.332;10.118;2023-01-19T02:19:02;19.17;;;11.40;;
8891;SDS011;4482;54.332;10.118;2023-01-19T02:21:34;14.50;;;11.63;;
8891;SDS011;4482;54.332;10.118;2023-01-19T02:24:08;16.20;;;11.50;;
8891;SDS011;4482;54.332;10.118;2023-01-19T02:26:35;17.17;;;11.53;;
8891;SDS011;4482;54.332;10.118;2023-01-19T02:29:05;14.80;;;11.07;;
8891;SDS011;4482;54.332;10.118;2023-01-19T02:31:34;16.47;;;10.33;;
8891;SDS011;4482;54.332;10.118;2023-01-19T02:34:03;17.63;;;11.30;;
8891;SDS011;4482;54.332;10.118;2023-01-19T02:36:33;17.10;;;11.73;;
8891;SDS011;4482;54.332;10.118;2023-01-19T02:39:03;16.87;;;12.43;;
8891;SDS011;4482;54.332;10.118;2023-01-19T02:41:33;17.60;;;11.10;;
8891;SDS011;4482;54.332;10.118;2023-01-19T02:44:04;14.90;;;10.83;;
8891;SDS011;4482;54.332;10.118;2023-01-19T02:46:33;19.47;;;12.43;;
8891;SDS011;4482;54.332;10.118;2023-01-19T02:49:00;19.40;;;12.27;;
8891;SDS011;4482;54.332;10.118;2023-01-19T02:51:27;28.30;;;18.40;;
8891;SDS011;4482;54.332;10.118;2023-01-19T02:53:58;25.63;;;16.40;;
8891;SDS011;4482;54.332;10.118;2023-01-19T02:56:36;16.87;;;12.13;;
8891;SDS011;4482;54.332;10.118;2023-01-19T02:59:09;17.17;;;12.50;;
8891;SDS011;4482;54.332;10.118;2023-01-19T03:01:50;16.07;;;12.00;;
8891;SDS011;4482;54.332;10.118;2023-01-19T03:04:39;13.70;;;11.30;;
8891;SDS011;4482;54.332;10.118;2023-01-19T03:07:20;13.67;;;11.90;;
8891;SDS011;4482;54.332;10.118;2023-01-19T03:09:56;15.57;;;11.73;;
8891;SDS011;4482;54.332;10.118;2023-01-19T03:12:33;14.00;;;11.00;;
8891;SDS011;4482;54.332;10.118;2023-01-19T03:15:09;14.20;;;11.77;;
8891;SDS011;4482;54.332;10.118;2023-01-19T03:17:40;19.03;;;10.93;;
8891;SDS011;4482;54.332;10.118;2023-01-19T03:20:10;16.60;;;12.03;;
8891;SDS011;4482;54.332;10.118;2023-01-19T03:22:41;15.00;;;11.87;;
8891;SDS011;4482;54.332;10.118;2023-01-19T03:25:09;15.73;;;11.93;;
8891;SDS011;4482;54.332;10.118;2023-01-19T03:27:40;15.37;;;12.27;;
8891;SDS011;4482;54.332;10.118;2023-01-19T03:30:11;14.73;;;11.17;;
8891;SDS011;4482;54.332;10.118;2023-01-19T03:32:43;15.30;;;11.20;;
8891;SDS011;4482;54.332;10.118;2023-01-19T03:35:15;14.73;;;11.97;;
8891;SDS011;4482;54.332;10.118;2023-01-19T03:37:47;17.70;;;12.63;;
8891;SDS011;4482;54.332;10.118;2023-01-19T03:40:17;17.13;;;11.23;;
8891;SDS011;4482;54.332;10.118;2023-01-19T03:42:45;18.27;;;12.37;;
8891;SDS011;4482;54.332;10.118;2023-01-19T03:45:14;12.83;;;11.07;;
8891;SDS011;4482;54.332;10.118;2023-01-19T03:47:42;28.00;;;12.73;;
8891;SDS011;4482;54.332;10.118;2023-01-19T03:50:10;16.13;;;11.60;;
8891;SDS011;4482;54.332;10.118;2023-01-19T03:52:43;16.97;;;11.83;;
8891;SDS011;4482;54.332;10.118;2023-01-19T03:55:10;14.53;;;11.77;;
8891;SDS011;4482;54.332;10.118;2023-01-19T03:57:37;16.10;;;11.63;;
8891;SDS011;4482;54.332;10.118;2023-01-19T04:00:06;15.33;;;11.43;;
8891;SDS011;4482;54.332;10.118;2023-01-19T04:02:34;16.60;;;11.50;;
8891;SDS011;4482;54.332;10.118;2023-01-19T04:05:01;20.10;;;12.03;;
8891;SDS011;4482;54.332;10.118;2023-01-19T04:07:28;16.73;;;12.70;;
8891;SDS011;4482;54.332;10.118;2023-01-19T04:09:55;15.60;;;11.77;;
8891;SDS011;4482;54.332;10.118;2023-01-19T04:12:22;19.10;;;12.23;;
8891;SDS011;4482;54.332;10.118;2023-01-19T04:14:48;18.10;;;12.67;;
8891;SDS011;4482;54.332;10.118;2023-01-19T04:17:17;14.53;;;11.53;;
8891;SDS011;4482;54.332;10.118;2023-01-19T04:19:43;14.57;;;11.47;;
8891;SDS011;4482;54.332;10.118;2023-01-19T04:22:10;15.37;;;12.47;;
8891;SDS011;4482;54.332;10.118;2023-01-19T04:24:37;17.30;;;11.40;;
8891;SDS011;4482;54.332;10.118;2023-01-19T04:27:04;16.00;;;11.70;;
8891;SDS011;4482;54.332;10.118;2023-01-19T04:29:31;18.50;;;11.73;;
8891;SDS011;4482;54.332;10.118;2023-01-19T04:31:58;19.73;;;11.17;;
8891;SDS011;4482;54.332;10.118;2023-01-19T04:34:26;17.00;;;12.13;;
8891;SDS011;4482;54.332;10.118;2023-01-19T04:36:53;15.30;;;11.90;;
8891;SDS011;4482;54.332;10.118;2023-01-19T04:39:20;15.00;;;11.50;;
8891;SDS011;4482;54.332;10.118;2023-01-19T04:41:47;13.77;;;11.90;;
8891;SDS011;4482;54.332;10.118;2023-01-19T04:44:15;20.97;;;12.47;;
8891;SDS011;4482;54.332;10.118;2023-01-19T04:46:42;16.43;;;11.93;;
8891;SDS011;4482;54.332;10.118;2023-01-19T04:49:09;13.63;;;12.03;;
8891;SDS011;4482;54.332;10.118;2023-01-19T04:51:37;16.40;;;11.53;;
8891;SDS011;4482;54.332;10.118;2023-01-19T04:54:04;15.27;;;11.40;;
8891;SDS011;4482;54.332;10.118;2023-01-19T04:56:32;14.80;;;11.47;;
8891;SDS011;4482;54.332;10.118;2023-01-19T04:58:59;16.87;;;12.33;;
8891;SDS011;4482;54.332;10.118;2023-01-19T05:01:27;14.47;;;10.90;;
8891;SDS011;4482;54.332;10.118;2023-01-19T05:03:54;18.27;;;11.23;;
8891;SDS011;4482;54.332;10.118;2023-01-19T05:06:23;15.17;;;10.87;;
8891;SDS011;4482;54.332;10.118;2023-01-19T05:08:51;13.90;;;10.97;;
8891;SDS011;4482;54.332;10.118;2023-01-19T05:11:18;15.60;;;12.10;;
8891;SDS011;4482;54.332;10.118;2023-01-19T05:13:45;15.07;;;11.47;;
8891;SDS011;4482;54.332;10.118;2023-01-19T05:16:12;12.70;;;10.80;;
8891;SDS011;4482;54.332;10.118;2023-01-19T05:18:39;13.00;;;10.97;;
8891;SDS011;4482;54.332;10.118;2023-01-19T05:21:06;14.37;;;11.50;;
8891;SDS011;4482;54.332;10.118;2023-01-19T05:23:33;13.13;;;11.23;;
8891;SDS011;4482;54.332;10.118;2023-01-19T05:26:02;17.40;;;11.27;;
8891;SDS011;4482;54.332;10.118;2023-01-19T05:28:29;13.83;;;11.20;;
8891;SDS011;4482;54.332;10.118;2023-01-19T05:30:57;13.70;;;11.23;;
8891;SDS011;4482;54.332;10.118;2023-01-19T05:33:24;13.53;;;11.33;;
8891;SDS011;4482;54.332;10.118;2023-01-19T05:35:51;16.17;;;11.53;;
8891;SDS011;4482;54.332;10.118;2023-01-19T05:38:19;15.57;;;10.97;;
8891;SDS011;4482;54.332;10.118;2023-01-19T05:40:47;19.00;;;13.03;;
8891;SDS011;4482;54.332;10.118;2023-01-19T05:43:15;12.70;;;10.67;;
8891;SDS011;4482;54.332;10.118;2023-01-19T05:45:42;15.17;;;11.60;;
8891;SDS011;4482;54.332;10.118;2023-01-19T05:48:09;17.73;;;11.67;;
8891;SDS011;4482;54.332;10.118;2023-01-19T05:50:36;14.40;;;10.13;;
8891;SDS011;4482;54.332;10.118;2023-01-19T05:53:03;16.77;;;11.53;;
8891;SDS011;4482;54.332;10.118;2023-01-19T05:55:30;22.10;;;14.13;;
8891;SDS011;4482;54.332;10.118;2023-01-19T05:57:57;21.20;;;14.57;;
8891;SDS011;4482;54.332;10.118;2023-01-19T06:00:25;15.27;;;11.30;;
8891;SDS011;4482;54.332;10.118;2023-01-19T06:02:52;18.97;;;12.27;;
8891;SDS011;4482;54.332;10.118;2023-01-19T06:05:19;13.70;;;11.80;;
8891;SDS011;4482;54.332;10.118;2023-01-19T06:07:46;15.67;;;12.37;;
8891;SDS011;4482;54.332;10.118;2023-01-19T06:10:13;16.73;;;12.53;;
8891;SDS011;4482;54.332;10.118;2023-01-19T06:12:40;16.60;;;12.40;;
8891;SDS011;4482;54.332;10.118;2023-01-19T06:15:07;16.83;;;13.23;;
8891;SDS011;4482;54.332;10.118;2023-01-19T06:17:35;16.47;;;13.47;;
8891;SDS011;4482;54.332;10.118;2023-01-19T06:20:02;15.90;;;12.57;;
8891;SDS011;4482;54.332;10.118;2023-01-19T06:22:31;16.33;;;12.50;;
8891;SDS011;4482;54.332;10.118;2023-01-19T06:24:58;16.60;;;13.07;;
8891;SDS011;4482;54.332;10.118;2023-01-19T06:27:25;16.77;;;12.00;;
8891;SDS011;4482;54.332;10.118;2023-01-19T06:29:51;17.83;;;13.27;;
8891;SDS011;4482;54.332;10.118;2023-01-19T06:32:18;53.53;;;30.20;;
8891;SDS011;4482;54.332;10.118;2023-01-19T06:34:47;25.33;;;16.07;;
8891;SDS011;4482;54.332;10.118;2023-01-19T06:37:14;18.07;;;13.77;;
8891;SDS011;4482;54.332;10.118;2023-01-19T06:39:41;16.93;;;13.63;;
8891;SDS011;4482;54.332;10.118;2023-01-19T06:42:09;21.87;;;14.20;;
8891;SDS011;4482;54.332;10.118;2023-01-19T06:44:36;22.17;;;13.47;;
8891;SDS011;4482;54.332;10.118;2023-01-19T06:47:07;20.50;;;13.37;;
8891;SDS011;4482;54.332;10.118;2023-01-19T06:49:34;18.27;;;13.47;;
8891;SDS011;4482;54.332;10.118;2023-01-19T06:52:02;20.87;;;14.37;;
8891;SDS011;4482;54.332;10.118;2023-01-19T06:54:29;17.93;;;13.70;;
8891;SDS011;4482;54.332;10.118;2023-01-19T06:56:56;49.90;;;31.00;;
8891;SDS011;4482;54.332;10.118;2023-01-19T06:59:23;40.47;;;24.40;;
8891;SDS011;4482;54.332;10.118;2023-01-19T07:01:50;21.50;;;16.10;;
8891;SDS011;4482;54.332;10.118;2023-01-19T07:04:17;19.37;;;14.13;;
8891;SDS011;4482;54.332;10.118;2023-01-19T07:06:43;17.43;;;13.60;;
8891;SDS011;4482;54.332;10.118;2023-01-19T07:09:12;16.70;;;13.30;;
8891;SDS011;4482;54.332;10.118;2023-01-19T07:11:41;17.37;;;12.50;;
8891;SDS011;4482;54.332;10.118;2023-01-19T07:14:07;17.97;;;13.00;;
8891;SDS011;4482;54.332;10.118;2023-01-19T07:16:34;17.83;;;12.30;;
8891;SDS011;4482;54.332;10.118;2023-01-19T07:19:01;20.20;;;12.97;;
8891;SDS011;4482;54.332;10.118;2023-01-19T07:21:29;20.87;;;13.20;;
8891;SDS011;4482;54.332;10.118;2023-01-19T07:23:56;21.00;;;12.20;;
8891;SDS011;4482;54.332;10.118;2023-01-19T07:26:24;17.07;;;12.23;;
8891;SDS011;4482;54.332;10.118;2023-01-19T07:28:52;15.07;;;11.70;;
8891;SDS011;4482;54.332;10.118;2023-01-19T07:31:19;16.90;;;11.97;;
8891;SDS011;4482;54.332;10.118;2023-01-19T07:33:46;17.67;;;12.03;;
8891;SDS011;4482;54.332;10.118;2023-01-19T07:36:12;13.67;;;11.40;;
8891;SDS011;4482;54.332;10.118;2023-01-19T07:38:39;16.13;;;12.80;;
8891;SDS011;4482;54.332;10.118;2023-01-19T07:41:07;16.93;;;10.73;;
8891;SDS011;4482;54.332;10.118;2023-01-19T07:43:36;13.80;;;10.60;;
8891;SDS011;4482;54.332;10.118;2023-01-19T07:46:04;13.30;;;10.40;;
8891;SDS011;4482;54.332;10.118;2023-01-19T07:48:31;12.17;;;9.57;;
8891;SDS011;4482;54.332;10.118;2023-01-19T07:50:59;11.03;;;9.73;;
8891;SDS011;4482;54.332;10.118;2023-01-19T07:53:29;13.60;;;9.67;;
8891;SDS011;4482;54.332;10.118;2023-01-19T07:55:56;10.93;;;8.90;;
8891;SDS011;4482;54.332;10.118;2023-01-19T07:58:23;11.53;;;8.87;;
8891;SDS011;4482;54.332;10.118;2023-01-19T08:00:52;17.07;;;9.63;;
8891;SDS011;4482;54.332;10.118;2023-01-19T08:03:19;11.43;;;9.30;;
8891;SDS011;4482;54.332;10.118;2023-01-19T08:05:49;10.30;;;7.90;;
8891;SDS011;4482;54.332;10.118;2023-01-19T08:08:17;13.77;;;9.57;;
8891;SDS011;4482;54.332;10.118;2023-01-19T08:10:45;11.10;;;8.37;;
8891;SDS011;4482;54.332;10.118;2023-01-19T08:13:15;9.67;;;8.37;;
8891;SDS011;4482;54.332;10.118;2023-01-19T08:15:42;14.47;;;10.00;;
8891;SDS011;4482;54.332;10.118;2023-01-19T08:18:11;11.73;;;8.53;;
8891;SDS011;4482;54.332;10.118;2023-01-19T08:20:39;11.67;;;8.63;;
8891;SDS011;4482;54.332;10.118;2023-01-19T08:23:06;10.57;;;9.00;;
8891;SDS011;4482;54.332;10.118;2023-01-19T08:25:33;10.53;;;8.23;;
8891;SDS011;4482;54.332;10.118;2023-01-19T08:28:02;11.33;;;8.97;;
8891;SDS011;4482;54.332;10.118;2023-01-19T08:30:30;10.90;;;8.70;;
8891;SDS011;4482;54.332;10.118;2023-01-19T08:32:58;10.57;;;8.87;;
8891;SDS011;4482;54.332;10.118;2023-01-19T08:35:30;10.20;;;8.47;;
8891;SDS011;4482;54.332;10.118;2023-01-19T08:37:57;9.77;;;8.33;;
8891;SDS011;4482;54.332;10.118;2023-01-19T08:40:26;12.20;;;9.13;;
8891;SDS011;4482;54.332;10.118;2023-01-19T08:42:56;11.67;;;9.80;;
8891;SDS011;4482;54.332;10.118;2023-01-19T08:45:24;13.80;;;10.63;;
8891;SDS011;4482;54.332;10.118;2023-01-19T08:47:54;13.50;;;9.77;;
8891;SDS011;4482;54.332;10.118;2023-01-19T08:50:23;15.10;;;11.10;;
8891;SDS011;4482;54.332;10.118;2023-01-19T08:52:51;13.17;;;10.40;;
8891;SDS011;4482;54.332;10.118;2023-01-19T08:55:20;12.27;;;9.97;;
8891;SDS011;4482;54.332;10.118;2023-01-19T08:57:49;14.73;;;10.63;;
8891;SDS011;4482;54.332;10.118;2023-01-19T09:00:16;13.60;;;10.93;;
8891;SDS011;4482;54.332;10.118;2023-01-19T09:02:44;16.00;;;11.33;;
8891;SDS011;4482;54.332;10.118;2023-01-19T09:05:11;11.77;;;10.40;;
8891;SDS011;4482;54.332;10.118;2023-01-19T09:07:38;15.03;;;11.33;;
8891;SDS011;4482;54.332;10.118;2023-01-19T09:10:07;12.13;;;9.63;;
8891;SDS011;4482;54.332;10.118;2023-01-19T09:12:35;13.43;;;9.43;;
8891;SDS011;4482;54.332;10.118;2023-01-19T09:15:02;12.33;;;9.47;;
8891;SDS011;4482;54.332;10.118;2023-01-19T09:17:29;10.73;;;9.27;;
8891;SDS011;4482;54.332;10.118;2023-01-19T09:19:56;11.90;;;10.03;;
8891;SDS011;4482;54.332;10.118;2023-01-19T09:22:23;10.80;;;8.53;;
8891;SDS011;4482;54.332;10.118;2023-01-19T09:24:50;10.20;;;8.97;;
8891;SDS011;4482;54.332;10.118;2023-01-19T09:27:18;10.67;;;8.63;;
8891;SDS011;4482;54.332;10.118;2023-01-19T09:29:45;8.93;;;8.03;;
8891;SDS011;4482;54.332;10.118;2023-01-19T09:32:16;10.60;;;8.53;;
8891;SDS011;4482;54.332;10.118;2023-01-19T09:34:44;10.83;;;8.93;;
8891;SDS011;4482;54.332;10.118;2023-01-19T09:37:11;9.13;;;7.60;;
8891;SDS011;4482;54.332;10.118;2023-01-19T09:39:39;10.20;;;8.00;;
8891;SDS011;4482;54.332;10.118;2023-01-19T09:42:07;12.73;;;8.60;;
8891;SDS011;4482;54.332;10.118;2023-01-19T09:44:42;12.10;;;8.80;;
8891;SDS011;4482;54.332;10.118;2023-01-19T09:47:12;9.67;;;8.00;;
8891;SDS011;4482;54.332;10.118;2023-01-19T09:49:40;9.60;;;8.60;;
8891;SDS011;4482;54.332;10.118;2023-01-19T09:52:10;11.37;;;9.17;;
8891;SDS011;4482;54.332;10.118;2023-01-19T09:54:39;10.33;;;8.60;;
8891;SDS011;4482;54.332;10.118;2023-01-19T09:57:12;11.00;;;8.67;;
8891;SDS011;4482;54.332;10.118;2023-01-19T09:59:39;13.40;;;9.27;;
8891;SDS011;4482;54.332;10.118;2023-01-19T10:02:16;11.20;;;9.27;;
8891;SDS011;4482;54.332;10.118;2023-01-19T10:04:51;13.07;;;10.03;;
8891;SDS011;4482;54.332;10.118;2023-01-19T10:07:31;15.30;;;9.57;;
8891;SDS011;4482;54.332;10.118;2023-01-19T10:10:06;12.00;;;9.53;;
8891;SDS011;4482;54.332;10.118;2023-01-19T10:12:42;10.53;;;9.40;;
8891;SDS011;4482;54.332;10.118;2023-01-19T10:15:20;14.13;;;9.37;;
8891;SDS011;4482;54.332;10.118;2023-01-19T10:17:59;15.90;;;9.60;;
8891;SDS011;4482;54.332;10.118;2023-01-19T10:20:38;14.43;;;9.73;;
8891;SDS011;4482;54.332;10.118;2023-01-19T10:23:15;14.73;;;9.30;;
8891;SDS011;4482;54.332;10.118;2023-01-19T10:25:58;15.27;;;9.33;;
8891;SDS011;4482;54.332;10.118;2023-01-19T10:28:28;12.80;;;10.20;;
8891;SDS011;4482;54.332;10.118;2023-01-19T10:30:55;12.80;;;10.60;;
8891;SDS011;4482;54.332;10.118;2023-01-19T10:33:23;11.43;;;9.77;;
8891;SDS011;4482;54.332;10.118;2023-01-19T10:35:51;17.97;;;11.23;;
8891;SDS011;4482;54.332;10.118;2023-01-19T10:38:18;13.57;;;10.30;;
8891;SDS011;4482;54.332;10.118;2023-01-19T10:40:47;12.23;;;9.83;;
8891;SDS011;4482;54.332;10.118;2023-01-19T10:43:36;13.77;;;11.03;;
8891;SDS011;4482;54.332;10.118;2023-01-19T10:46:04;11.60;;;9.40;;
8891;SDS011;4482;54.332;10.118;2023-01-19T10:48:39;13.10;;;10.57;;
8891;SDS011;4482;54.332;10.118;2023-01-19T10:51:07;15.27;;;9.83;;
8891;SDS011;4482;54.332;10.118;2023-01-19T10:53:35;15.40;;;10.50;;
8891;SDS011;4482;54.332;10.118;2023-01-19T10:56:13;14.37;;;10.23;;
8891;SDS011;4482;54.332;10.118;2023-01-19T10:58:41;12.87;;;10.30;;
8891;SDS011;4482;54.332;10.118;2023-01-19T11:01:12;11.40;;;9.33;;
8891;SDS011;4482;54.332;10.118;2023-01-19T11:03:42;12.30;;;9.37;;
8891;SDS011;4482;54.332;10.118;2023-01-19T11:06:23;15.10;;;10.03;;
8891;SDS011;4482;54.332;10.118;2023-01-19T11:08:52;10.77;;;9.07;;
8891;SDS011;4482;54.332;10.118;2023-01-19T11:11:40;11.83;;;8.90;;
8891;SDS011;4482;54.332;10.118;2023-01-19T11:14:09;12.17;;;8.93;;
8891;SDS011;4482;54.332;10.118;2023-01-19T11:16:37;13.07;;;8.60;;
8891;SDS011;4482;54.332;10.118;2023-01-19T11:19:12;9.43;;;8.47;;
8891;SDS011;4482;54.332;10.118;2023-01-19T11:21:49;9.40;;;8.07;;
8891;SDS011;4482;54.332;10.118;2023-01-19T11:24:16;8.43;;;7.33;;
8891;SDS011;4482;54.332;10.118;2023-01-19T11:26:43;16.67;;;8.87;;
8891;SDS011;4482;54.332;10.118;2023-01-19T11:29:14;9.37;;;7.90;;
8891;SDS011;4482;54.332;10.118;2023-01-19T11:31:43;10.23;;;8.33;;
8891;SDS011;4482;54.332;10.118;2023-01-19T11:34:23;8.23;;;7.10;;
8891;SDS011;4482;54.332;10.118;2023-01-19T11:36:56;9.30;;;8.13;;
8891;SDS011;4482;54.332;10.118;2023-01-19T11:39:26;10.10;;;8.23;;
8891;SDS011;4482;54.332;10.118;2023-01-19T11:41:54;9.97;;;8.13;;
8891;SDS011;4482;54.332;10.118;2023-01-19T11:44:23;8.73;;;7.33;;
8891;SDS011;4482;54.332;10.118;2023-01-19T11:46:55;13.23;;;7.67;;
8891;SDS011;4482;54.332;10.118;2023-01-19T11:49:28;10.30;;;8.47;;
8891;SDS011;4482;54.332;10.118;2023-01-19T11:52:03;8.40;;;7.50;;
8891;SDS011;4482;54.332;10.118;2023-01-19T11:54:34;8.17;;;7.37;;
8891;SDS011;4482;54.332;10.118;2023-01-19T11:57:09;10.27;;;7.93;;
8891;SDS011;4482;54.332;10.118;2023-01-19T11:59:40;7.77;;;6.97;;
8891;SDS011;4482;54.332;10.118;2023-01-19T12:02:10;9.70;;;7.83;;
8891;SDS011;4482;54.332;10.118;2023-01-19T12:04:45;9.77;;;8.57;;
8891;SDS011;4482;54.332;10.118;2023-01-19T12:07:13;14.57;;;9.37;;
8891;SDS011;4482;54.332;10.118;2023-01-19T12:09:44;13.13;;;8.67;;
8891;SDS011;4482;54.332;10.118;2023-01-19T12:12:15;14.03;;;8.77;;
8891;SDS011;4482;54.332;10.118;2023-01-19T12:14:53;11.13;;;8.50;;
8891;SDS011;4482;54.332;10.118;2023-01-19T12:17:24;12.03;;;8.90;;
8891;SDS011;4482;54.332;10.118;2023-01-19T12:19:55;10.90;;;8.80;;
8891;SDS011;4482;54.332;10.118;2023-01-19T12:22:28;11.17;;;9.10;;
8891;SDS011;4482;54.332;10.118;2023-01-19T12:25:04;10.20;;;8.57;;
8891;SDS011;4482;54.332;10.118;2023-01-19T12:27:39;14.00;;;8.97;;
8891;SDS011;4482;54.332;10.118;2023-01-19T12:30:08;13.27;;;8.87;;
8891;SDS011;4482;54.332;10.118;2023-01-19T12:32:42;10.20;;;8.17;;
8891;SDS011;4482;54.332;10.118;2023-01-19T12:38:22;9.23;;;7.37;;
8891;SDS011;4482;54.332;10.118;2023-01-19T12:41:16;10.07;;;8.83;;
8891;SDS011;4482;54.332;10.118;2023-01-19T12:43:46;10.33;;;8.37;;
8891;SDS011;4482;54.332;10.118;2023-01-19T12:46:23;11.30;;;8.37;;
8891;SDS011;4482;54.332;10.118;2023-01-19T12:48:54;9.63;;;8.37;;
8891;SDS011;4482;54.332;10.118;2023-01-19T12:51:30;10.53;;;8.83;;
8891;SDS011;4482;54.332;10.118;2023-01-19T12:53:59;8.50;;;7.60;;
8891;SDS011;4482;54.332;10.118;2023-01-19T12:56:29;10.67;;;8.90;;
8891;SDS011;4482;54.332;10.118;2023-01-19T12:58:57;15.47;;;9.73;;
8891;SDS011;4482;54.332;10.118;2023-01-19T13:01:25;11.40;;;8.27;;
8891;SDS011;4482;54.332;10.118;2023-01-19T13:04:01;12.90;;;8.67;;
8891;SDS011;4482;54.332;10.118;2023-01-19T13:09:35;13.17;;;9.33;;
8891;SDS011;4482;54.332;10.118;2023-01-19T13:12:10;12.33;;;9.13;;
8891;SDS011;4482;54.332;10.118;2023-01-19T13:14:47;12.73;;;9.00;;
8891;SDS011;4482;54.332;10.118;2023-01-19T13:17:25;10.50;;;8.90;;
8891;SDS011;4482;54.332;10.118;2023-01-19T13:19:58;11.43;;;8.97;;
8891;SDS011;4482;54.332;10.118;2023-01-19T13:22:48;12.47;;;8.77;;
8891;SDS011;4482;54.332;10.118;2023-01-19T13:25:24;9.87;;;8.30;;
8891;SDS011;4482;54.332;10.118;2023-01-19T13:27:54;11.97;;;8.83;;
8891;SDS011;4482;54.332;10.118;2023-01-19T13:30:23;11.20;;;8.80;;
8891;SDS011;4482;54.332;10.118;2023-01-19T13:32:52;11.13;;;7.63;;
8891;SDS011;4482;54.332;10.118;2023-01-19T13:35:20;12.73;;;8.90;;
8891;SDS011;4482;54.332;10.118;2023-01-19T13:37:48;8.33;;;7.43;;
8891;SDS011;4482;54.332;10.118;2023-01-19T13:40:16;11.43;;;8.13;;
8891;SDS011;4482;54.332;10.118;2023-01-19T13:42:48;11.03;;;7.57;;
8891;SDS011;4482;54.332;10.118;2023-01-19T13:45:20;8.97;;;7.13;;
8891;SDS011;4482;54.332;10.118;2023-01-19T13:47:55;7.93;;;6.93;;
8891;SDS011;4482;54.332;10.118;2023-01-19T13:50:24;11.00;;;7.70;;
8891;SDS011;4482;54.332;10.118;2023-01-19T13:52:53;8.83;;;7.33;;
8891;SDS011;4482;54.332;10.118;2023-01-19T13:55:21;8.10;;;6.97;;
8891;SDS011;4482;54.332;10.118;2023-01-19T13:57:50;8.53;;;6.83;;
8891;SDS011;4482;54.332;10.118;2023-01-19T14:00:19;8.00;;;6.40;;
8891;SDS011;4482;54.332;10.118;2023-01-19T14:02:51;9.03;;;7.23;;
8891;SDS011;4482;54.332;10.118;2023-01-19T14:05:24;10.77;;;7.37;;
8891;SDS011;4482;54.332;10.118;2023-01-19T14:08:03;8.43;;;6.50;;
8891;SDS011;4482;54.332;10.118;2023-01-19T14:10:31;11.00;;;6.30;;
8891;SDS011;4482;54.332;10.118;2023-01-19T14:13:01;9.17;;;6.30;;
8891;SDS011;4482;54.332;10.118;2023-01-19T14:15:30;7.97;;;6.47;;
8891;SDS011;4482;54.332;10.118;2023-01-19T14:21:04;7.27;;;5.73;;
8891;SDS011;4482;54.332;10.118;2023-01-19T14:23:40;6.60;;;5.90;;
8891;SDS011;4482;54.332;10.118;2023-01-19T14:29:16;6.50;;;5.80;;
8891;SDS011;4482;54.332;10.118;2023-01-19T14:31:47;9.77;;;6.57;;
8891;SDS011;4482;54.332;10.118;2023-01-19T14:34:28;8.53;;;6.10;;
8891;SDS011;4482;54.332;10.118;2023-01-19T14:36:59;13.30;;;5.77;;
8891;SDS011;4482;54.332;10.118;2023-01-19T14:39:28;6.87;;;5.23;;
8891;SDS011;4482;54.332;10.118;2023-01-19T14:41:59;8.53;;;5.90;;
8891;SDS011;4482;54.332;10.118;2023-01-19T14:44:31;8.50;;;5.67;;
8891;SDS011;4482;54.332;10.118;2023-01-19T14:47:01;7.33;;;5.90;;
8891;SDS011;4482;54.332;10.118;2023-01-19T14:49:32;6.60;;;5.83;;
8891;SDS011;4482;54.332;10.118;2023-01-19T14:52:00;6.73;;;5.47;;
8891;SDS011;4482;54.332;10.118;2023-01-19T14:54:30;6.83;;;5.67;;
8891;SDS011;4482;54.332;10.118;2023-01-19T14:57:01;8.63;;;5.80;;
8891;SDS011;4482;54.332;10.118;2023-01-19T14:59:27;7.93;;;5.77;;
8891;SDS011;4482;54.332;10.118;2023-01-19T15:01:56;7.07;;;5.40;;
8891;SDS011;4482;54.332;10.118;2023-01-19T15:04:23;7.63;;;5.37;;
8891;SDS011;4482;54.332;10.118;2023-01-19T15:06:50;10.87;;;6.23;;
8891;SDS011;4482;54.332;10.118;2023-01-19T15:09:17;7.10;;;5.33;;
8891;SDS011;4482;54.332;10.118;2023-01-19T15:11:45;7.70;;;6.10;;